Time;durP1;ratioP1;P1;durP2;ratioP2;P2;SDS_P1;SDS_P2;PMS_P1;PMS_P2;Temp;Humidity;BMP_temperature;BMP_pressure;BME280_temperature;BME280_humidity;BME280_pressure;Samples;Min_cycle;Max_cycle;Signal;HPM_P1;HPM_P2
2022/11/01 00:02:42;;;;;;;81.10;45.80;;;;;;;9.11;81.92;100496.08;2224796;80;31378;-58
2022/11/01 00:05:45;;;;;;;75.42;45.33;;;;;;;9.09;81.86;100487.24;2224730;79;33313;-58
2022/11/01 00:08:46;;;;;;;71.05;46.40;;;;;;;9.07;81.89;100486.91;2224191;79;30495;-59
2022/11/01 00:11:48;;;;;;;79.22;50.12;;;;;;;9.06;82.14;100485.17;2224245;79;27642;-58
2022/11/01 00:14:49;;;;;;;73.67;47.70;;;;;;;9.06;82.23;100474.00;2224364;79;28618;-58
2022/11/01 00:17:50;;;;;;;73.37;46.73;;;;;;;9.08;82.50;100473.95;2210922;79;32143;-58
2022/11/01 00:20:52;;;;;;;76.70;48.63;;;;;;;9.07;82.28;100457.52;2185856;81;33002;-58
2022/11/01 00:23:53;;;;;;;70.80;46.28;;;;;;;9.07;82.30;100460.19;2187640;80;29702;-58
2022/11/01 00:26:54;;;;;;;73.90;46.25;;;;;;;9.06;82.29;100452.62;2211154;80;27707;-59
2022/11/01 00:29:56;;;;;;;75.32;47.05;;;;;;;9.07;82.25;100452.17;2210615;80;28667;-58
2022/11/01 00:32:57;;;;;;;66.87;45.35;;;;;;;9.07;82.23;100446.34;2211046;80;31192;-58
2022/11/01 00:36:00;;;;;;;76.75;47.48;;;;;;;9.06;82.30;100436.58;2210950;80;34111;-58
2022/11/01 00:39:04;;;;;;;71.25;46.88;;;;;;;9.08;82.33;100429.86;2211094;80;29506;-59
2022/11/01 00:42:06;;;;;;;77.03;50.10;;;;;;;9.10;83.07;100426.66;2210772;80;27765;-58
2022/11/01 00:45:09;;;;;;;82.37;49.20;;;;;;;9.18;83.90;100423.67;2210951;80;29710;-58
2022/11/01 00:48:12;;;;;;;68.78;48.60;;;;;;;9.27;84.17;100416.09;2228734;79;31029;-58
2022/11/01 00:51:13;;;;;;;80.03;49.08;;;;;;;9.35;84.29;100421.60;2250163;79;33819;-58
2022/11/01 00:54:15;;;;;;;86.32;47.70;;;;;;;9.43;84.56;100414.99;2250810;79;29764;-59
2022/11/01 00:57:16;;;;;;;81.12;48.40;;;;;;;9.51;84.65;100414.66;2250579;79;28187;-58
2022/11/01 01:00:18;;;;;;;73.10;47.88;;;;;;;9.59;84.67;100412.98;2250931;79;29851;-58
2022/11/01 01:03:19;;;;;;;72.58;46.85;;;;;;;9.63;84.45;100416.39;2251511;79;31361;-58
2022/11/01 01:06:20;;;;;;;71.53;47.75;;;;;;;9.63;84.16;100410.59;2251024;79;33404;-58
2022/11/01 01:09:22;;;;;;;72.25;48.70;;;;;;;9.65;84.29;100419.87;2250594;79;30364;-58
2022/11/01 01:12:24;;;;;;;78.57;47.45;;;;;;;9.65;84.04;100417.19;2250929;79;27587;-58
2022/11/01 01:15:25;;;;;;;77.67;47.33;;;;;;;9.63;83.76;100405.69;2251035;79;28832;-58
2022/11/01 01:18:26;;;;;;;67.97;46.08;;;;;;;9.60;83.77;100404.03;2226346;79;31018;-59
2022/11/01 01:21:27;;;;;;;75.67;46.55;;;;;;;9.56;84.00;100395.28;2211335;80;34157;-59
2022/11/01 01:24:30;;;;;;;89.45;47.38;;;;;;;9.59;84.82;100391.59;2207055;80;29688;-59
2022/11/01 01:27:31;;;;;;;78.07;48.45;;;;;;;9.64;84.84;100394.05;2185555;81;27671;-61
2022/11/01 01:30:33;;;;;;;76.67;47.27;;;;;;;9.65;84.98;100390.44;2185799;81;29059;-59
2022/11/01 01:33:35;;;;;;;70.60;46.35;;;;;;;9.69;84.99;100390.23;2186137;81;31349;-61
2022/11/01 01:36:36;;;;;;;76.97;47.15;;;;;;;9.69;84.86;100386.22;2185883;81;33331;-59
2022/11/01 01:39:38;;;;;;;68.25;46.28;;;;;;;9.69;84.74;100383.55;2185661;81;29710;-59
2022/11/01 01:42:41;;;;;;;75.57;47.10;;;;;;;9.68;84.50;100383.14;2185559;81;27643;-58
2022/11/01 01:45:43;;;;;;;68.97;45.60;;;;;;;9.66;84.65;100377.47;2185337;81;28715;-59
2022/11/01 01:48:49;;;;;;;75.05;47.23;;;;;;;9.65;84.49;100370.38;2187915;80;31431;-59
2022/11/01 01:51:50;;;;;;;71.87;44.95;;;;;;;9.64;84.77;100366.86;2185585;81;33747;-58
2022/11/01 01:54:52;;;;;;;69.87;45.65;;;;;;;9.65;84.77;100367.70;2185202;81;30519;-58
2022/11/01 01:57:54;;;;;;;78.80;44.50;;;;;;;9.64;84.66;100368.19;2185731;81;27588;-58
2022/11/01 02:00:55;;;;;;;68.02;44.48;;;;;;;9.65;84.85;100359.69;2185544;81;29795;-58
2022/11/01 02:03:57;;;;;;;63.08;44.38;;;;;;;9.63;84.57;100363.78;2185066;81;32294;-58
2022/11/01 02:06:58;;;;;;;67.27;43.95;;;;;;;9.60;84.28;100363.91;2185916;81;33295;-59
2022/11/01 02:10:00;;;;;;;66.77;42.55;;;;;;;9.54;84.02;100358.37;2185486;81;29746;-58
2022/11/01 02:13:04;;;;;;;63.68;42.50;;;;;;;9.49;83.83;100356.36;2185474;81;27701;-58
2022/11/01 02:16:20;;;;;;;68.28;43.58;;;;;;;9.43;83.88;100345.47;2184588;81;28639;-58
2022/11/01 02:19:32;;;;;;;70.75;45.58;;;;;;;9.40;84.16;100336.72;2215807;80;31376;-58
2022/11/01 02:23:11;;;;;;;63.68;42.10;;;;;;;9.39;84.57;100333.16;2128272;77;32951;-68
2022/11/01 02:26:27;;;;;;;66.47;43.68;;;;;;;9.38;84.52;100336.77;2043959;87;30080;-66
2022/11/01 02:30:02;;;;;;;67.72;45.35;;;;;;;9.34;84.40;100330.30;2093885;83;28256;-65
2022/11/01 02:33:36;;;;;;;73.02;45.28;;;;;;;9.30;84.28;100328.69;2021705;88;28680;-65
2022/11/01 02:36:42;;;;;;;65.12;42.25;;;;;;;9.23;84.14;100324.97;2042515;87;31049;-66
2022/11/01 02:39:51;;;;;;;70.05;42.78;;;;;;;9.18;84.01;100320.77;2039192;87;33724;-66
2022/11/01 02:42:57;;;;;;;62.08;42.45;;;;;;;9.11;84.01;100310.33;2042480;87;30673;-65
2022/11/01 02:46:59;;;;;;;54.58;38.80;;;;;;;9.11;84.05;100317.01;2015206;87;27852;-65
2022/11/01 02:49:07;;;;;;;70.20;42.43;;;;;;;9.09;84.20;100311.34;2039605;87;29478;-66
2022/11/01 02:52:13;;;;;;;65.30;42.27;;;;;;;9.07;84.34;100310.53;2038009;87;31044;-66
2022/11/01 02:55:28;;;;;;;79.12;47.88;;;;;;;9.06;84.56;100306.13;2042071;87;32966;-65
2022/11/01 02:58:30;;;;;;;64.32;44.70;;;;;;;9.04;84.57;100306.17;2039776;87;29343;-65
2022/11/01 03:01:34;;;;;;;59.65;39.83;;;;;;;9.05;84.73;100306.57;2042317;87;27779;-65
2022/11/01 03:04:36;;;;;;;63.40;39.60;;;;;;;9.04;84.59;100307.98;2039775;87;28649;-66
2022/11/01 03:07:40;;;;;;;58.85;37.60;;;;;;;9.01;84.27;100321.02;2095558;84;31065;-65
2022/11/01 03:10:46;;;;;;;59.83;37.78;;;;;;;8.95;84.11;100320.80;2115039;84;32934;-65
2022/11/01 03:14:05;;;;;;;58.80;38.05;;;;;;;8.92;83.94;100320.06;2081842;84;29701;-65
2022/11/01 03:17:20;;;;;;;58.15;38.78;;;;;;;8.87;83.83;100316.70;2079876;85;27709;-65
2022/11/01 03:20:46;;;;;;;40.50;26.87;;;;;;;8.81;83.77;100317.39;2079842;85;28297;-64
2022/11/01 03:23:40;;;;;;;50.98;34.58;;;;;;;8.78;83.86;100318.85;2087107;83;32217;-64
2022/11/01 03:26:43;;;;;;;49.18;34.03;;;;;;;8.74;83.72;100320.38;2078235;85;33393;-65
2022/11/01 03:29:49;;;;;;;51.20;34.88;;;;;;;8.68;83.61;100317.51;2084822;85;29371;-65
2022/11/01 03:32:55;;;;;;;53.33;35.65;;;;;;;8.64;83.60;100321.23;2092612;85;27672;-65
2022/11/01 03:36:01;;;;;;;49.70;32.85;;;;;;;8.60;83.47;100318.27;2093248;85;28690;-65
2022/11/01 03:39:27;;;;;;;45.73;32.53;;;;;;;8.56;83.44;100308.20;2093256;85;32279;-65
2022/11/01 03:42:29;;;;;;;55.92;34.38;;;;;;;8.53;83.40;100308.77;2093528;84;33342;-64
2022/11/01 03:45:33;;;;;;;57.98;35.03;;;;;;;8.48;83.42;100304.95;2093504;85;30425;-64
2022/11/01 03:48:39;;;;;;;49.83;33.63;;;;;;;8.45;83.60;100312.60;2093854;85;27672;-64
2022/11/01 03:51:40;;;;;;;48.30;33.33;;;;;;;8.41;83.49;100314.13;2093596;85;28842;-64
2022/11/01 03:54:41;;;;;;;53.02;34.40;;;;;;;8.37;83.44;100320.03;2093763;85;31581;-64
2022/11/01 03:57:50;;;;;;;52.43;34.90;;;;;;;8.33;83.42;100310.44;2078396;85;32972;-66
2022/11/01 04:00:54;;;;;;;57.08;36.63;;;;;;;8.32;83.80;100306.03;2042851;86;29403;-65
2022/11/01 04:03:55;;;;;;;53.85;36.20;;;;;;;8.29;83.66;100311.00;2096698;84;27699;-64
2022/11/01 04:06:56;;;;;;;48.38;35.98;;;;;;;8.25;83.51;100309.86;2096296;84;28671;-65
2022/11/01 04:09:57;;;;;;;61.08;41.83;;;;;;;8.20;83.43;100311.38;2078397;85;30990;-66
2022/11/01 04:12:59;;;;;;;78.22;42.27;;;;;;;8.16;83.46;100307.09;2059793;86;32943;-65
2022/11/01 04:22:40;;;;;;;75.90;40.85;;;;;;;8.23;85.26;100296.59;2078914;84;28690;-65
2022/11/01 04:25:45;;;;;;;79.55;40.83;;;;;;;8.23;85.02;100293.03;2113514;84;31389;-65
2022/11/01 04:28:55;;;;;;;;;;;;;;;8.23;84.79;100299.70;2116723;83;33893;-65
2022/11/01 04:31:57;;;;;;;80.65;40.03;;;;;;;8.18;84.70;100295.45;2113431;84;30633;-66
2022/11/01 04:34:58;;;;;;;56.37;39.30;;;;;;;8.12;84.52;100298.34;2113513;84;27697;-65
2022/11/01 04:37:59;;;;;;;59.08;39.75;;;;;;;8.10;84.81;100292.67;2044327;86;28648;-66
2022/11/01 04:41:00;;;;;;;55.75;36.68;;;;;;;8.09;84.80;100298.45;2044250;87;31075;-65
2022/11/01 04:44:02;;;;;;;58.33;38.05;;;;;;;8.06;84.53;100302.13;2043943;87;34113;-65
2022/11/01 04:47:04;;;;;;;48.87;35.58;;;;;;;8.01;84.31;100308.09;2043966;87;29365;-65
2022/11/01 04:50:06;;;;;;;57.80;36.70;;;;;;;7.96;84.17;100302.55;2044442;87;27627;-66
2022/11/01 04:53:09;;;;;;;62.05;38.45;;;;;;;7.91;84.07;100301.39;2042602;87;28850;-66
2022/11/01 04:56:12;;;;;;;55.05;37.20;;;;;;;7.85;84.11;100302.95;2097021;84;32493;-65
2022/11/01 04:59:14;;;;;;;53.13;35.70;;;;;;;7.81;83.91;100306.66;2040953;87;32972;-66
2022/11/01 05:02:15;;;;;;;60.25;39.35;;;;;;;7.76;83.93;100302.84;2097062;84;30557;-66
2022/11/01 05:05:17;;;;;;;57.30;36.65;;;;;;;7.69;84.29;100291.53;2041237;87;27629;-66
2022/11/01 05:08:18;;;;;;;61.60;39.23;;;;;;;7.74;84.72;100300.69;2040964;87;28543;-66
2022/11/01 05:11:24;;;;;;;65.40;39.45;;;;;;;7.73;84.77;100296.28;2097293;84;31057;-68
2022/11/01 05:14:22;;;;;;;62.55;38.78;;;;;;;7.77;85.35;100290.39;2040603;87;32985;-67
2022/11/01 05:17:24;;;;;;;61.02;40.75;;;;;;;7.82;85.70;100284.39;2097276;84;30149;-66
2022/11/01 05:20:25;;;;;;;59.03;37.73;;;;;;;7.83;85.79;100277.69;2040940;87;27682;-65
2022/11/01 05:23:26;;;;;;;63.17;38.55;;;;;;;7.88;86.01;100273.02;2078342;85;29897;-67
2022/11/01 05:26:27;;;;;;;64.47;40.70;;;;;;;7.92;86.25;100268.46;2115510;84;31449;-66
2022/11/01 05:29:29;;;;;;;61.18;38.85;;;;;;;7.95;86.28;100268.31;2116091;84;33109;-65
2022/11/01 05:32:31;;;;;;;67.87;39.55;;;;;;;7.99;86.23;100261.08;2115685;84;29865;-65
2022/11/01 05:35:34;;;;;;;62.15;38.67;;;;;;;8.01;86.42;100259.22;2079625;85;27631;-65
2022/11/01 05:38:36;;;;;;;69.77;38.55;;;;;;;8.03;86.46;100256.89;2115851;84;29071;-65
2022/11/01 05:41:42;;;;;;;59.67;36.42;;;;;;;8.05;86.43;100258.15;2079864;85;32208;-64
2022/11/01 05:44:43;;;;;;;72.32;39.88;;;;;;;8.06;86.64;100263.89;2115849;84;33351;-64
2022/11/01 05:47:44;;;;;;;64.67;37.65;;;;;;;8.07;86.51;100277.64;2115758;84;29352;-66
2022/11/01 05:50:46;;;;;;;60.63;37.42;;;;;;;8.08;86.53;100291.86;2079930;85;27614;-67
2022/11/01 05:53:48;;;;;;;56.77;34.23;;;;;;;8.07;86.59;100297.65;2082835;84;29162;-67
2022/11/01 05:56:50;;;;;;;64.85;37.60;;;;;;;8.07;86.35;100290.98;2076360;84;30465;-64
2022/11/01 05:59:51;;;;;;;63.58;37.53;;;;;;;8.07;86.31;100302.98;2076372;85;34122;-65
2022/11/01 06:02:52;;;;;;;71.00;38.75;;;;;;;8.08;86.11;100306.54;2076213;85;29826;-64
2022/11/01 06:05:54;;;;;;;59.58;36.20;;;;;;;8.05;86.14;100293.72;2076739;85;27738;-65
2022/11/01 06:08:56;;;;;;;61.90;37.00;;;;;;;8.05;86.21;100288.38;2076527;85;28680;-65
2022/11/01 06:11:58;;;;;;;64.97;36.40;;;;;;;8.06;86.22;100293.23;2076631;85;31446;-65
2022/11/01 06:14:59;;;;;;;67.50;38.08;;;;;;;8.09;86.25;100293.12;2076507;85;34161;-64
2022/11/01 06:18:00;;;;;;;60.33;36.45;;;;;;;8.10;86.30;100290.01;2076298;85;29901;-64
2022/11/01 06:21:01;;;;;;;56.45;35.40;;;;;;;8.11;86.42;100286.41;2076253;85;27619;-64
2022/11/01 06:24:03;;;;;;;55.08;34.55;;;;;;;8.15;86.45;100294.23;2079122;83;29942;-64
2022/11/01 06:27:05;;;;;;;61.45;34.27;;;;;;;8.22;86.49;100297.52;2115751;84;31765;-64
2022/11/01 06:30:09;;;;;;;67.42;34.35;;;;;;;8.27;86.60;100300.88;2079856;85;33451;-64
2022/11/01 06:33:10;;;;;;;55.17;32.70;;;;;;;8.33;86.65;100308.63;2115848;84;30125;-65
2022/11/01 06:36:11;;;;;;;58.75;34.08;;;;;;;8.42;86.71;100322.06;2115825;84;28132;-65
2022/11/01 06:39:13;;;;;;;58.58;34.35;;;;;;;8.49;86.64;100328.94;2079569;85;28939;-64
2022/11/01 06:42:14;;;;;;;58.35;35.35;;;;;;;8.57;86.56;100345.09;2115482;84;33144;-65
2022/11/01 06:45:15;;;;;;;61.30;35.08;;;;;;;8.62;86.41;100344.45;2115924;84;33330;-65
2022/11/01 06:48:16;;;;;;;59.58;32.65;;;;;;;8.66;86.29;100348.27;2079704;85;30405;-65
2022/11/01 06:51:17;;;;;;;58.52;32.35;;;;;;;8.71;86.17;100348.55;2115933;84;27691;-66
2022/11/01 06:54:19;;;;;;;56.23;33.58;;;;;;;8.73;86.10;100350.70;2076080;85;29032;-64
2022/11/01 06:57:21;;;;;;;59.85;33.83;;;;;;;8.75;85.97;100368.87;2076127;85;31055;-64
2022/11/01 07:00:23;;;;;;;53.55;35.05;;;;;;;8.77;86.00;100357.17;2076460;85;32974;-65
2022/11/01 07:03:25;;;;;;;58.92;33.35;;;;;;;8.81;86.06;100359.25;2076375;85;30098;-65
2022/11/01 07:06:29;;;;;;;58.55;34.00;;;;;;;8.87;86.08;100357.66;2076242;85;27679;-64
2022/11/01 07:09:31;;;;;;;59.18;34.45;;;;;;;8.94;86.20;100350.27;2076514;85;29980;-64
2022/11/01 07:12:32;;;;;;;59.40;35.48;;;;;;;9.05;86.35;100347.14;2076249;85;31783;-65
2022/11/01 07:15:34;;;;;;;62.75;38.05;;;;;;;9.17;86.54;100341.74;2076242;85;33403;-66
2022/11/01 07:18:37;;;;;;;56.75;36.35;;;;;;;9.28;86.61;100343.47;2076174;85;30105;-64
2022/11/01 07:21:38;;;;;;;63.17;35.35;;;;;;;9.42;86.64;100350.90;2077040;85;27619;-64
2022/11/01 07:24:40;;;;;;;58.98;33.75;;;;;;;9.53;86.62;100354.41;2118827;81;29009;-64
2022/11/01 07:27:41;;;;;;;62.43;31.00;;;;;;;9.69;86.89;100365.30;2078500;85;31436;-64
2022/11/01 07:30:50;;;;;;;52.70;30.17;;;;;;;9.84;86.71;100362.41;2093360;85;34023;-64
2022/11/01 07:33:52;;;;;;;55.28;30.15;;;;;;;10.01;87.12;100361.14;1990133;87;30559;-66
2022/11/01 07:36:54;;;;;;;55.58;31.10;;;;;;;10.24;87.25;100361.88;2026282;87;27863;-65
2022/11/01 07:39:55;;;;;;;49.60;28.90;;;;;;;10.44;87.19;100350.73;1990393;89;29279;-64
2022/11/01 07:43:00;;;;;;;51.53;29.95;;;;;;;10.61;86.67;100338.72;2004256;88;32203;-64
2022/11/01 07:49:21;;;;;;;53.58;31.65;;;;;;;10.91;86.32;100332.77;1917656;92;28601;-66
2022/11/01 07:52:22;;;;;;;50.75;29.52;;;;;;;11.06;85.81;100327.56;1922001;92;28321;-64
2022/11/01 07:55:24;;;;;;;49.05;29.82;;;;;;;11.18;85.95;100325.58;1880813;94;29060;-66
2022/11/01 07:58:27;;;;;;;48.30;29.50;;;;;;;11.34;86.14;100324.78;1933491;92;31901;-66
2022/11/01 08:01:29;;;;;;;46.30;29.10;;;;;;;11.56;86.15;100329.91;1933885;92;32959;-64
2022/11/01 08:04:30;;;;;;;47.53;29.25;;;;;;;11.75;85.75;100330.26;1933973;92;28726;-64
2022/11/01 08:07:38;;;;;;;45.85;28.23;;;;;;;11.84;85.21;100338.65;1934080;92;27733;-64
2022/11/01 08:10:41;;;;;;;45.38;30.23;;;;;;;11.99;85.25;100341.51;1936174;91;28086;-65
2022/11/01 08:13:43;;;;;;;40.12;27.07;;;;;;;12.15;85.25;100352.25;1969703;90;31073;-64
2022/11/01 08:16:54;;;;;;;42.43;26.97;;;;;;;12.31;85.13;100342.88;1937951;91;33366;-64
2022/11/01 08:19:55;;;;;;;38.60;25.90;;;;;;;12.42;84.39;100334.19;1969689;90;30011;-64
2022/11/01 08:22:57;;;;;;;39.42;25.08;;;;;;;12.51;84.39;100330.10;1989610;88;27787;-65
2022/11/01 08:25:58;;;;;;;38.02;25.02;;;;;;;12.58;84.27;100341.75;2002615;87;28645;-64
2022/11/01 08:29:01;;;;;;;42.40;24.95;;;;;;;12.60;83.63;100341.19;2001255;88;32191;-66
2022/11/01 08:32:03;;;;;;;36.03;24.52;;;;;;;12.65;83.76;100336.92;2001540;88;33787;-64
2022/11/01 08:35:07;;;;;;;39.38;24.77;;;;;;;12.68;83.25;100330.00;2002106;88;29701;-67
2022/11/01 08:38:09;;;;;;;36.70;23.20;;;;;;;12.71;83.44;100328.48;2001338;88;27770;-67
2022/11/01 08:41:10;;;;;;;38.30;23.98;;;;;;;12.74;83.02;100334.18;2001764;88;29908;-67
2022/11/01 08:44:11;;;;;;;36.38;22.85;;;;;;;12.69;82.87;100327.70;1974781;88;31835;-66
2022/11/01 08:47:13;;;;;;;36.33;25.23;;;;;;;12.69;82.92;100328.20;2058857;86;33035;-66
2022/11/01 08:50:16;;;;;;;38.95;24.40;;;;;;;12.71;82.85;100337.04;2044897;87;30482;-66
2022/11/01 08:53:18;;;;;;;38.50;22.42;;;;;;;12.74;82.98;100339.55;2041461;87;27725;-65
2022/11/01 08:56:20;;;;;;;33.20;21.57;;;;;;;12.74;82.67;100337.72;2079038;85;29780;-66
2022/11/01 08:59:22;;;;;;;32.38;21.37;;;;;;;12.74;82.55;100339.06;2078507;85;31126;-66
2022/11/01 09:02:23;;;;;;;40.60;23.02;;;;;;;12.76;82.39;100335.81;2078698;85;33337;-66
2022/11/01 09:05:24;;;;;;;32.65;22.10;;;;;;;12.80;82.57;100333.80;2093985;85;29867;-67
2022/11/01 09:08:26;;;;;;;33.55;21.93;;;;;;;12.88;82.59;100333.34;2078389;85;27735;-66
2022/11/01 09:11:29;;;;;;;39.13;22.80;;;;;;;12.94;82.58;100339.72;2059934;86;29108;-66
2022/11/01 09:14:30;;;;;;;37.10;22.52;;;;;;;13.05;82.51;100341.78;2075696;85;32237;-66
2022/11/01 09:17:32;;;;;;;32.55;21.87;;;;;;;13.18;82.57;100331.13;2078338;85;33009;-66
2022/11/01 09:20:33;;;;;;;31.85;21.35;;;;;;;13.29;82.56;100334.06;2078722;85;29365;-65
2022/11/01 09:23:36;;;;;;;35.33;22.00;;;;;;;13.42;82.46;100334.69;2079058;85;27616;-66
2022/11/01 09:26:38;;;;;;;34.27;21.23;;;;;;;13.51;82.11;100331.41;2079316;84;29808;-66
2022/11/01 09:29:39;;;;;;;33.08;21.02;;;;;;;13.57;81.92;100328.85;2079883;85;32396;-68
2022/11/01 09:32:41;;;;;;;32.95;20.77;;;;;;;13.70;81.76;100332.51;2115794;84;34147;-65
2022/11/01 09:35:47;;;;;;;36.15;20.95;;;;;;;13.79;81.56;100332.41;2079407;85;29406;-65
2022/11/01 09:38:49;;;;;;;34.92;20.32;;;;;;;13.75;81.40;100318.75;2138844;82;27545;-66
2022/11/01 09:42:03;;;;;;;35.35;20.43;;;;;;;13.94;81.33;100339.52;2079678;85;29892;-65
2022/11/01 09:45:13;;;;;;;35.60;22.15;;;;;;;14.05;81.30;100344.70;2102319;84;31070;-65
2022/11/01 09:48:15;;;;;;;29.60;20.35;;;;;;;14.12;80.87;100340.66;2075978;84;32962;-65
2022/11/01 09:51:20;;;;;;;28.40;20.35;;;;;;;14.19;80.77;100339.29;2076350;85;30112;-65
2022/11/01 09:54:24;;;;;;;34.50;21.75;;;;;;;14.17;80.64;100314.27;2076128;85;27710;-65
2022/11/01 09:57:35;;;;;;;36.35;21.42;;;;;;;14.35;80.71;100351.77;2076036;85;29985;-66
2022/11/01 10:00:41;;;;;;;29.42;19.10;;;;;;;14.43;80.63;100355.70;2076555;85;31017;-65
2022/11/01 10:04:03;;;;;;;28.95;17.98;;;;;;;14.52;80.28;100348.84;2076015;85;33004;-65
2022/11/01 10:07:24;;;;;;;29.87;18.55;;;;;;;14.61;80.21;100350.07;2075583;85;29752;-65
2022/11/01 10:10:55;;;;;;;31.12;19.23;;;;;;;14.71;80.15;100341.81;2075723;85;27705;-66
2022/11/01 10:14:11;;;;;;;23.45;16.60;;;;;;;14.83;79.93;100344.14;2076442;85;28646;-66
2022/11/01 10:17:16;;;;;;;29.50;17.40;;;;;;;14.97;80.05;100353.17;2044855;87;31054;-65
2022/11/01 10:20:24;;;;;;;25.20;15.85;;;;;;;15.07;79.66;100362.36;2011071;88;33090;-66
2022/11/01 10:23:43;;;;;;;24.77;16.40;;;;;;;15.17;79.47;100365.30;2011583;88;29392;-65
2022/11/01 10:26:45;;;;;;;29.30;17.70;;;;;;;15.24;79.07;100372.49;2046148;86;27641;-65
2022/11/01 10:30:07;;;;;;;24.47;16.70;;;;;;;15.31;78.94;100373.78;2069200;86;29127;-65
2022/11/01 10:33:17;;;;;;;20.23;15.85;;;;;;;15.41;78.81;100376.72;2069063;86;31038;-66
2022/11/01 10:36:24;;;;;;;24.60;14.90;;;;;;;15.52;78.54;100370.12;2068661;86;33109;-71
2022/11/01 10:39:44;;;;;;;21.60;15.15;;;;;;;15.68;78.35;100366.34;2004105;88;29321;-69
2022/11/01 10:42:46;;;;;;;23.25;16.80;;;;;;;15.84;78.24;100370.16;2046111;87;27628;-68
2022/11/01 10:45:50;;;;;;;23.92;16.93;;;;;;;16.02;78.09;100363.98;2027669;87;30027;-65
2022/11/01 10:48:55;;;;;;;;;;;;;;;16.15;77.63;100363.47;2045049;87;31412;-65
2022/11/01 10:52:00;;;;;;;26.05;17.10;;;;;;;16.29;77.42;100374.65;2115579;82;33083;-65
2022/11/01 10:55:03;;;;;;;26.12;17.23;;;;;;;16.45;77.27;100374.88;2079834;85;29337;-64
2022/11/01 10:58:35;;;;;;;24.77;16.20;;;;;;;16.59;76.81;100377.43;2091749;84;27741;-65
2022/11/01 11:01:42;;;;;;;24.10;15.40;;;;;;;16.73;76.69;100375.03;2079834;85;29127;-66
2022/11/01 11:04:44;;;;;;;27.87;16.02;;;;;;;16.87;76.31;100374.01;2106589;84;31090;-66
2022/11/01 11:07:45;;;;;;;25.85;16.37;;;;;;;16.96;76.27;100378.75;2079604;85;33350;-66
2022/11/01 11:10:47;;;;;;;22.90;15.35;;;;;;;17.03;76.00;100375.11;2098440;84;29764;-66
2022/11/01 11:13:53;;;;;;;29.35;15.63;;;;;;;17.08;75.46;100378.82;2103440;84;27652;-66
2022/11/01 11:16:56;;;;;;;25.92;15.60;;;;;;;17.10;75.38;100377.71;2038117;87;28693;-65
2022/11/01 11:20:05;;;;;;;25.48;15.68;;;;;;;17.09;75.06;100380.05;2043838;87;31501;-68
2022/11/01 11:23:10;;;;;;;22.42;14.53;;;;;;;17.08;74.94;100372.91;2043902;87;32946;-64
2022/11/01 11:26:15;;;;;;;19.73;14.68;;;;;;;17.09;74.49;100381.39;2043756;85;30158;-66
2022/11/01 11:29:44;;;;;;;22.00;15.00;;;;;;;17.08;74.62;100379.67;2034541;87;27954;-64
2022/11/01 11:32:49;;;;;;;23.75;15.03;;;;;;;17.10;74.64;100384.48;2030296;85;28764;-64
2022/11/01 11:35:56;;;;;;;23.60;15.58;;;;;;;17.13;74.27;100381.55;2040321;87;31846;-63
2022/11/01 11:38:59;;;;;;;20.75;13.98;;;;;;;17.13;73.95;100381.55;2040573;87;33089;-66
2022/11/01 11:42:19;;;;;;;21.62;13.80;;;;;;;17.10;73.65;100379.06;2040088;87;29396;-67
2022/11/01 11:45:29;;;;;;;23.02;14.07;;;;;;;17.11;73.82;100383.50;2039502;87;28302;-65
2022/11/01 11:48:31;;;;;;;25.27;13.70;;;;;;;17.11;73.39;100385.36;2070317;84;28645;-66
2022/11/01 11:51:38;;;;;;;22.45;12.78;;;;;;;17.13;73.21;100391.50;2070136;86;31462;-65
2022/11/01 11:54:40;;;;;;;19.05;13.68;;;;;;;17.14;73.31;100387.81;2069803;84;33170;-66
2022/11/01 11:57:51;;;;;;;18.62;12.65;;;;;;;17.13;73.37;100380.19;2043115;85;29758;-65
2022/11/01 12:01:01;;;;;;;20.85;13.50;;;;;;;17.15;73.23;100386.36;2049522;85;27695;-65
2022/11/01 12:04:10;;;;;;;18.98;12.75;;;;;;;17.14;73.04;100388.69;2049847;85;29037;-65
2022/11/01 12:07:28;;;;;;;20.15;13.25;;;;;;;17.13;72.79;100377.95;2049476;85;31052;-65
2022/11/01 12:10:39;;;;;;;20.27;12.85;;;;;;;17.12;72.61;100374.91;2048629;86;32978;-64
2022/11/01 12:13:47;;;;;;;20.17;14.18;;;;;;;17.11;72.64;100381.30;2049547;86;29955;-66
2022/11/01 12:16:49;;;;;;;20.80;13.75;;;;;;;17.13;72.64;100373.90;2019816;85;27658;-65
2022/11/01 12:20:14;;;;;;;21.73;13.53;;;;;;;17.16;72.71;100373.67;2049815;85;29840;-66
2022/11/01 12:23:35;;;;;;;21.57;12.88;;;;;;;17.20;72.54;100375.67;2024343;85;31411;-66
2022/11/01 12:26:37;;;;;;;20.52;12.65;;;;;;;17.22;72.28;100369.63;2052659;83;32969;-66
2022/11/01 12:29:49;;;;;;;20.45;13.30;;;;;;;17.24;72.21;100366.31;2103684;83;28752;-66
2022/11/01 12:32:57;;;;;;;20.50;13.65;;;;;;;17.27;71.98;100370.14;2094535;83;27722;-66
2022/11/01 12:35:59;;;;;;;22.40;13.68;;;;;;;17.32;72.08;100370.66;2103783;83;28803;-65
2022/11/01 12:39:19;;;;;;;19.40;13.58;;;;;;;17.34;71.65;100362.41;2079404;84;32116;-66
2022/11/01 12:42:31;;;;;;;19.25;13.65;;;;;;;17.35;71.84;100369.08;2033804;86;34376;-66
2022/11/01 12:46:05;;;;;;;19.85;13.85;;;;;;;17.37;71.50;100375.72;2033493;86;31273;-65
2022/11/01 12:49:23;;;;;;;18.87;11.78;;;;;;;17.37;71.66;100366.24;1940950;90;27941;-65
2022/11/01 12:52:32;;;;;;;16.75;11.28;;;;;;;17.41;71.55;100366.38;1942945;90;29081;-66
2022/11/01 12:55:41;;;;;;;15.78;10.98;;;;;;;17.42;71.32;100364.89;1941695;90;31042;-65
2022/11/01 12:58:42;;;;;;;15.60;10.78;;;;;;;17.43;71.09;100367.98;1940269;90;33452;-65
2022/11/01 13:02:13;;;;;;;16.32;11.05;;;;;;;17.41;71.08;100370.45;1936330;90;29376;-63
2022/11/01 13:05:50;;;;;;;12.85;10.32;;;;;;;17.39;70.98;100372.41;1943361;90;27636;-63
2022/11/01 13:09:21;;;;;;;13.70;9.63;;;;;;;17.36;70.66;100386.17;1939548;90;29237;-64
2022/11/01 13:12:47;;;;;;;14.00;8.58;;;;;;;17.31;70.78;100383.83;1940041;90;31459;-64
2022/11/01 13:16:15;;;;;;;12.40;9.73;;;;;;;17.24;70.49;100378.02;1942397;90;34101;-64
2022/11/01 13:19:34;;;;;;;12.73;9.10;;;;;;;17.22;70.48;100387.22;1946097;89;29124;-64
2022/11/01 13:22:49;;;;;;;14.13;8.68;;;;;;;17.18;70.27;100377.13;1995883;89;27757;-64
2022/11/01 13:26:16;;;;;;;14.05;8.20;;;;;;;17.15;70.22;100375.53;1935615;90;28851;-65
2022/11/01 13:29:42;;;;;;;11.57;7.10;;;;;;;17.09;70.08;100380.55;2000586;87;31976;-65
2022/11/01 13:33:00;;;;;;;9.38;7.37;;;;;;;17.02;69.90;100370.68;1990222;88;33719;-65
2022/11/01 13:36:25;;;;;;;15.98;8.55;;;;;;;16.95;69.99;100377.05;1999476;88;30016;-65
2022/11/01 13:39:54;;;;;;;17.07;9.23;;;;;;;16.89;69.91;100380.17;1904580;93;27780;-64
2022/11/01 13:43:07;;;;;;;15.68;8.73;;;;;;;16.83;69.96;100377.92;1906998;93;29553;-65
2022/11/01 13:46:33;;;;;;;13.10;7.85;;;;;;;16.76;69.93;100391.55;1869782;95;32333;-64
2022/11/01 13:49:46;;;;;;;17.62;8.48;;;;;;;16.69;69.80;100393.34;1861609;94;33708;-64
2022/11/01 13:53:00;;;;;;;7.03;6.10;;;;;;;16.64;69.98;100395.52;1906418;93;29460;-65
2022/11/01 13:56:27;;;;;;;12.93;6.75;;;;;;;16.62;70.00;100397.49;1889538;93;27810;-64
2022/11/01 13:59:43;;;;;;;9.58;6.50;;;;;;;16.61;70.01;100386.77;1915274;91;29092;-65
2022/11/01 14:02:56;;;;;;;10.23;6.75;;;;;;;16.61;69.92;100386.77;1934308;91;31485;-65
2022/11/01 14:06:13;;;;;;;10.77;6.90;;;;;;;16.62;70.15;100387.14;1915244;91;32956;-64
2022/11/01 14:09:30;;;;;;;10.48;7.00;;;;;;;16.65;70.03;100391.83;1933507;91;29156;-63
2022/11/01 14:12:38;;;;;;;13.18;7.17;;;;;;;16.67;70.08;100406.61;1958893;86;27774;-65
2022/11/01 14:15:58;;;;;;;9.30;7.22;;;;;;;16.69;70.19;100406.02;2069834;84;28645;-65
2022/11/01 14:19:13;;;;;;;9.23;6.83;;;;;;;16.70;70.10;100406.39;1966693;89;31255;-65
2022/11/01 14:22:26;;;;;;;14.60;7.03;;;;;;;16.66;69.96;100407.59;1983635;88;32950;-67
2022/11/01 14:25:30;;;;;;;10.32;7.05;;;;;;;16.61;69.69;100409.76;1986406;88;29705;-64